Time;durP1;ratioP1;P1;durP2;ratioP2;P2;SDS_P1;SDS_P2;PMS_P1;PMS_P2;Temp;Humidity;BMP_temperature;BMP_pressure;BME280_temperature;BME280_humidity;BME280_pressure;Samples;Min_cycle;Max_cycle;Signal;HPM_P1;HPM_P2
2021/08/08 00:01:55;;;;;;;2.67;1.90;;;17.40;99.90;;;;;;3610838;39;20241;-77
2021/08/08 00:04:24;;;;;;;3.38;2.00;;;17.40;99.90;;;;;;3609604;39;20262;-79
2021/08/08 00:06:51;;;;;;;2.08;1.65;;;17.50;99.90;;;;;;3613243;39;20222;-81
2021/08/08 00:09:18;;;;;;;4.68;2.35;;;17.60;99.90;;;;;;3613390;39;20242;-77
2021/08/08 00:11:50;;;;;;;1.42;1.33;;;17.60;99.90;;;;;;3613389;39;20233;-82
2021/08/08 00:14:18;;;;;;;3.17;1.83;;;17.70;99.90;;;;;;3613420;39;21044;-78
2021/08/08 00:16:46;;;;;;;2.35;1.70;;;17.50;99.90;;;;;;3602139;39;20245;-78
2021/08/08 00:19:13;;;;;;;2.85;1.85;;;17.40;99.90;;;;;;3613226;39;20287;-78
2021/08/08 00:21:42;;;;;;;2.47;1.40;;;17.60;99.90;;;;;;3613341;39;20245;-79
2021/08/08 00:24:09;;;;;;;1.83;1.63;;;17.70;99.90;;;;;;3613251;39;20250;-79
2021/08/08 00:26:37;;;;;;;4.65;2.20;;;17.60;99.90;;;;;;3612689;39;20237;-79
2021/08/08 00:29:04;;;;;;;4.57;1.92;;;17.30;99.90;;;;;;3604708;39;20676;-81
2021/08/08 00:31:31;;;;;;;2.80;2.05;;;17.30;99.90;;;;;;3613352;39;20224;-78
2021/08/08 00:34:06;;;;;;;3.22;1.90;;;17.20;99.90;;;;;;3604658;39;20242;-77
2021/08/08 00:36:35;;;;;;;3.20;1.63;;;17.00;99.90;;;;;;3604516;39;20245;-77
2021/08/08 00:39:05;;;;;;;2.50;1.67;;;17.20;99.90;;;;;;3604720;39;20206;-77
2021/08/08 00:41:33;;;;;;;2.22;1.80;;;17.10;99.90;;;;;;3596271;39;20291;-77
2021/08/08 00:44:02;;;;;;;3.60;1.55;;;17.00;99.90;;;;;;3604346;39;20574;-78
2021/08/08 00:46:30;;;;;;;2.00;1.80;;;17.00;99.90;;;;;;3604438;39;20246;-77
2021/08/08 00:48:59;;;;;;;3.20;1.77;;;17.00;99.90;;;;;;3604490;39;20230;-78
2021/08/08 00:51:28;;;;;;;1.50;1.40;;;17.10;99.90;;;;;;3604658;39;20246;-76
2021/08/08 00:53:57;;;;;;;4.63;1.60;;;17.00;99.90;;;;;;3604221;39;20225;-77
2021/08/08 00:56:28;;;;;;;2.22;1.15;;;17.20;99.90;;;;;;3596016;39;20619;-77
2021/08/08 00:58:56;;;;;;;1.42;1.33;;;17.40;99.90;;;;;;3604557;39;20226;-78
2021/08/08 01:01:28;;;;;;;1.55;1.40;;;17.30;99.90;;;;;;3596110;39;20274;-78
2021/08/08 01:04:02;;;;;;;1.58;1.35;;;17.30;99.90;;;;;;3596075;39;20305;-77
2021/08/08 01:06:35;;;;;;;2.83;1.40;;;17.20;99.90;;;;;;3604298;40;20615;-79
2021/08/08 01:09:04;;;;;;;3.10;1.35;;;17.20;99.90;;;;;;3596075;39;20222;-77
2021/08/08 01:11:38;;;;;;;1.75;1.08;;;16.90;99.90;;;;;;3604446;39;20241;-77
2021/08/08 01:14:07;;;;;;;1.52;1.20;;;16.60;99.90;;;;;;3604313;39;20252;-79
2021/08/08 01:16:39;;;;;;;2.90;1.42;;;16.40;99.90;;;;;;3603979;39;20299;-80
2021/08/08 01:19:10;;;;;;;1.60;1.00;;;16.20;99.90;;;;;;3604286;39;20246;-79
2021/08/08 01:21:43;;;;;;;1.10;1.00;;;16.30;99.90;;;;;;3604401;39;20429;-79
2021/08/08 01:24:13;;;;;;;2.28;1.58;;;16.30;99.90;;;;;;3612961;39;20374;-77
2021/08/08 01:26:46;;;;;;;1.80;1.23;;;16.30;99.90;;;;;;3604206;39;20245;-77
2021/08/08 01:29:15;;;;;;;1.05;0.88;;;16.30;99.90;;;;;;3604237;39;20234;-77
2021/08/08 01:31:53;;;;;;;3.22;1.13;;;16.30;99.90;;;;;;3604997;39;20233;-77
2021/08/08 01:34:24;;;;;;;0.90;0.90;;;16.30;99.90;;;;;;3612935;39;20245;-77
2021/08/08 01:36:53;;;;;;;1.02;0.90;;;16.30;99.90;;;;;;3604021;39;20241;-78
2021/08/08 01:39:24;;;;;;;1.52;1.00;;;16.40;99.90;;;;;;3604182;39;20273;-77
2021/08/08 01:41:58;;;;;;;0.82;0.77;;;16.30;99.90;;;;;;3604307;39;20210;-77
2021/08/08 01:44:39;;;;;;;2.13;1.02;;;16.50;99.90;;;;;;3604197;39;20299;-79
2021/08/08 01:47:07;;;;;;;2.30;1.08;;;16.60;99.90;;;;;;3604218;39;20268;-77
2021/08/08 01:49:35;;;;;;;1.05;1.00;;;16.60;99.90;;;;;;3604044;39;20236;-77
2021/08/08 01:52:08;;;;;;;2.95;1.20;;;16.70;99.90;;;;;;3604205;39;20234;-81
2021/08/08 01:54:46;;;;;;;1.23;1.10;;;16.80;99.90;;;;;;3604153;39;20233;-83
2021/08/08 01:57:18;;;;;;;2.75;0.88;;;16.70;99.90;;;;;;3604194;39;20224;-84
2021/08/08 01:59:51;;;;;;;3.75;0.77;;;16.70;99.90;;;;;;3604187;39;20255;-79
2021/08/08 02:02:19;;;;;;;1.58;1.17;;;16.70;99.90;;;;;;3604090;39;20241;-77
2021/08/08 02:04:56;;;;;;;3.33;1.17;;;16.70;99.90;;;;;;3595607;39;20288;-77
2021/08/08 02:07:24;;;;;;;2.20;0.93;;;16.70;99.90;;;;;;3612174;39;20225;-78
2021/08/08 02:09:56;;;;;;;2.03;1.10;;;16.70;99.90;;;;;;3604196;39;20283;-78
2021/08/08 02:12:24;;;;;;;1.95;0.68;;;16.70;99.90;;;;;;3603866;39;20225;-77
2021/08/08 02:14:52;;;;;;;1.08;0.98;;;16.60;99.90;;;;;;3595651;39;20258;-79
2021/08/08 02:17:27;;;;;;;1.40;1.05;;;16.50;99.90;;;;;;3603908;39;20245;-83
2021/08/08 02:19:55;;;;;;;1.42;1.00;;;16.50;99.90;;;;;;3604063;39;20213;-77
2021/08/08 02:22:24;;;;;;;1.33;0.90;;;16.50;99.90;;;;;;3604039;39;20291;-77
2021/08/08 02:24:52;;;;;;;0.50;0.50;;;16.40;99.90;;;;;;3603890;39;20241;-80
2021/08/08 02:27:26;;;;;;;0.45;0.43;;;16.30;99.90;;;;;;3601850;39;20670;-77
2021/08/08 02:30:07;;;;;;;0.60;0.60;;;16.00;99.90;;;;;;3603748;39;20629;-78
2021/08/08 02:32:35;;;;;;;0.80;0.80;;;15.90;99.90;;;;;;3612287;39;20760;-77
2021/08/08 02:35:03;;;;;;;0.60;0.60;;;16.00;99.90;;;;;;3595466;39;20265;-78
2021/08/08 02:37:30;;;;;;;0.75;0.73;;;16.00;99.90;;;;;;3595336;39;20271;-77
2021/08/08 02:39:58;;;;;;;1.70;0.70;;;16.00;99.90;;;;;;3612245;39;20237;-77
2021/08/08 02:42:28;;;;;;;1.85;0.85;;;16.10;99.90;;;;;;3603892;39;20222;-82
2021/08/08 02:44:55;;;;;;;1.05;0.60;;;16.20;99.90;;;;;;3612211;39;20303;-77
2021/08/08 02:47:22;;;;;;;1.10;0.75;;;16.30;99.90;;;;;;3603496;39;20237;-80
2021/08/08 02:49:49;;;;;;;3.20;0.88;;;16.40;99.90;;;;;;3603741;39;20237;-78
2021/08/08 02:52:16;;;;;;;0.80;0.80;;;16.40;99.90;;;;;;3603800;39;20234;-76
2021/08/08 02:54:43;;;;;;;1.15;0.70;;;16.40;99.90;;;;;;3603589;39;20765;-77
2021/08/08 02:57:10;;;;;;;0.77;0.75;;;16.40;99.90;;;;;;3603610;39;20245;-80
2021/08/08 02:59:38;;;;;;;0.85;0.70;;;16.40;99.90;;;;;;3603783;39;20241;-77
2021/08/08 03:02:06;;;;;;;0.65;0.65;;;16.40;99.90;;;;;;3612199;39;20206;-77
2021/08/08 03:04:35;;;;;;;0.95;0.70;;;16.30;99.90;;;;;;3612010;39;20229;-78
2021/08/08 03:07:02;;;;;;;1.88;0.73;;;16.30;99.90;;;;;;3603580;39;20238;-81
2021/08/08 03:09:29;;;;;;;1.40;0.98;;;16.40;99.90;;;;;;3612078;39;20250;-76
2021/08/08 03:11:56;;;;;;;0.93;0.80;;;16.40;99.90;;;;;;3603498;39;20258;-77
2021/08/08 03:14:24;;;;;;;1.05;0.85;;;16.20;99.90;;;;;;3603487;39;20237;-78
2021/08/08 03:16:55;;;;;;;2.20;0.70;;;16.20;99.90;;;;;;3612031;39;20291;-79
2021/08/08 03:19:25;;;;;;;1.45;0.90;;;16.30;99.90;;;;;;3605155;39;20727;-78
2021/08/08 03:21:55;;;;;;;1.48;0.93;;;16.30;99.90;;;;;;3613540;39;20577;-79
2021/08/08 03:24:22;;;;;;;0.65;0.65;;;16.40;99.90;;;;;;3605032;39;20242;-82
2021/08/08 03:26:51;;;;;;;0.75;0.70;;;16.40;99.90;;;;;;3604836;39;20250;-78
2021/08/08 03:29:18;;;;;;;0.77;0.77;;;16.50;99.90;;;;;;3605153;39;20233;-78
2021/08/08 03:31:48;;;;;;;1.85;1.25;;;16.50;99.90;;;;;;3596661;39;20237;-79
2021/08/08 03:34:17;;;;;;;2.08;0.70;;;16.50;99.90;;;;;;3605044;39;20702;-77
2021/08/08 03:36:45;;;;;;;2.30;1.20;;;16.40;99.90;;;;;;3604987;39;20218;-79
2021/08/08 03:39:12;;;;;;;1.48;0.90;;;16.40;99.90;;;;;;3604957;39;20253;-77
2021/08/08 03:41:40;;;;;;;1.55;0.80;;;16.30;99.90;;;;;;3596498;39;20229;-79
2021/08/08 03:44:07;;;;;;;1.45;0.98;;;16.20;99.90;;;;;;3605017;39;20303;-79
2021/08/08 03:46:34;;;;;;;1.80;0.90;;;16.40;99.90;;;;;;3604833;39;20684;-78
2021/08/08 03:49:03;;;;;;;4.72;1.30;;;16.40;99.90;;;;;;3604934;39;20237;-77
2021/08/08 03:51:31;;;;;;;0.75;0.60;;;16.20;99.90;;;;;;3596536;39;20287;-77
2021/08/08 03:53:59;;;;;;;1.40;1.10;;;16.40;99.90;;;;;;3596371;39;20232;-77
2021/08/08 03:56:26;;;;;;;1.85;0.90;;;16.50;99.90;;;;;;3613565;39;20242;-77
2021/08/08 03:58:53;;;;;;;1.77;0.70;;;16.60;99.90;;;;;;3613364;39;20306;-78
2021/08/08 04:01:20;;;;;;;2.53;1.25;;;16.60;99.90;;;;;;3613289;39;20218;-81
2021/08/08 04:03:47;;;;;;;1.08;0.82;;;16.50;99.90;;;;;;3604868;39;20728;-80
2021/08/08 04:06:14;;;;;;;1.15;0.57;;;16.50;99.90;;;;;;3596327;39;20724;-77
2021/08/08 04:08:43;;;;;;;1.75;0.93;;;16.50;99.90;;;;;;3604718;40;20265;-77
2021/08/08 04:11:12;;;;;;;1.75;0.93;;;16.50;99.90;;;;;;3606054;39;20650;-76
2021/08/08 04:13:40;;;;;;;1.90;1.00;;;16.40;99.90;;;;;;3613213;39;20274;-78
2021/08/08 04:16:07;;;;;;;1.00;0.98;;;16.40;99.90;;;;;;3612809;39;20865;-78
2021/08/08 04:18:34;;;;;;;1.35;1.08;;;16.50;99.90;;;;;;3613265;39;20241;-78
2021/08/08 04:21:03;;;;;;;1.92;0.90;;;16.40;99.90;;;;;;3613165;39;20237;-78
2021/08/08 04:23:30;;;;;;;2.17;1.00;;;16.40;99.90;;;;;;3604652;39;20252;-78
2021/08/08 04:25:59;;;;;;;2.47;0.90;;;16.50;99.90;;;;;;3613105;39;20257;-77
2021/08/08 04:28:27;;;;;;;2.05;1.20;;;16.40;99.90;;;;;;3604332;39;20246;-78
2021/08/08 04:30:54;;;;;;;1.00;1.00;;;16.40;99.90;;;;;;3604499;39;20245;-78
2021/08/08 04:33:21;;;;;;;2.40;1.13;;;16.50;99.90;;;;;;3604540;39;20234;-78
2021/08/08 04:35:48;;;;;;;3.88;1.58;;;16.40;99.90;;;;;;3604676;39;20274;-78
2021/08/08 04:38:18;;;;;;;1.67;1.27;;;16.60;99.90;;;;;;3612907;39;20229;-78
2021/08/08 04:40:46;;;;;;;1.50;1.23;;;16.70;99.90;;;;;;3613117;39;20676;-78
2021/08/08 04:43:14;;;;;;;1.30;1.10;;;16.80;99.90;;;;;;3612998;39;20246;-77
2021/08/08 04:45:41;;;;;;;1.85;0.90;;;16.80;99.90;;;;;;3613007;39;20229;-79
2021/08/08 04:48:08;;;;;;;1.85;1.27;;;16.90;99.90;;;;;;3612781;39;20265;-79
2021/08/08 04:50:36;;;;;;;3.42;1.17;;;16.70;99.90;;;;;;3612971;39;20246;-81
2021/08/08 04:53:03;;;;;;;3.47;1.67;;;16.70;99.90;;;;;;3612935;39;20241;-79
2021/08/08 04:55:33;;;;;;;1.30;1.20;;;16.70;99.90;;;;;;3604516;39;20230;-77
2021/08/08 04:58:02;;;;;;;2.10;1.00;;;16.80;99.90;;;;;;3612954;39;20202;-78
2021/08/08 05:00:32;;;;;;;1.48;1.20;;;16.90;99.90;;;;;;3612888;39;20649;-80
2021/08/08 05:03:02;;;;;;;1.50;1.10;;;17.10;99.90;;;;;;3604076;39;20273;-78
2021/08/08 05:05:32;;;;;;;3.72;1.52;;;17.10;99.90;;;;;;3612617;39;20261;-79
2021/08/08 05:08:00;;;;;;;2.58;1.45;;;16.90;99.90;;;;;;3604232;39;20257;-76
2021/08/08 05:10:30;;;;;;;3.00;1.08;;;16.90;99.90;;;;;;3604445;39;20230;-77
2021/08/08 05:12:59;;;;;;;5.68;1.70;;;16.80;99.90;;;;;;3604192;39;20242;-77
2021/08/08 05:15:26;;;;;;;3.40;1.88;;;16.90;99.90;;;;;;3604358;39;20282;-78
2021/08/08 05:17:56;;;;;;;2.53;1.35;;;16.90;99.90;;;;;;3604339;39;20742;-78
2021/08/08 05:20:23;;;;;;;1.60;1.50;;;17.00;99.90;;;;;;3613047;39;20700;-78
2021/08/08 05:22:50;;;;;;;2.55;1.52;;;17.00;99.90;;;;;;3604190;39;20229;-77
2021/08/08 05:25:17;;;;;;;2.28;1.98;;;17.10;99.90;;;;;;3595966;39;20249;-80
2021/08/08 05:27:45;;;;;;;2.00;1.42;;;17.10;99.90;;;;;;3595774;39;20307;-77
2021/08/08 05:30:14;;;;;;;2.50;1.67;;;;;;;;;;3604328;39;20226;-80
2021/08/08 05:32:42;;;;;;;3.42;1.30;;;17.10;99.90;;;;;;3604130;40;20287;-78
2021/08/08 05:35:12;;;;;;;1.40;1.23;;;17.10;99.90;;;;;;3604270;39;20222;-83
2021/08/08 05:37:39;;;;;;;1.83;1.60;;;17.10;99.90;;;;;;3603619;39;20273;-77
2021/08/08 05:40:07;;;;;;;6.57;2.13;;;17.10;99.90;;;;;;3604156;39;20254;-79
2021/08/08 05:42:48;;;;;;;2.05;1.73;;;17.10;99.90;;;;;;3604294;39;20255;-78
2021/08/08 05:45:15;;;;;;;3.88;2.22;;;17.10;99.90;;;;;;3603849;39;20233;-77
2021/08/08 05:47:42;;;;;;;3.10;1.67;;;17.20;99.90;;;;;;3612671;39;20238;-78
2021/08/08 05:50:11;;;;;;;4.75;1.98;;;17.20;99.90;;;;;;3612877;39;20237;-77
2021/08/08 05:52:38;;;;;;;2.13;1.73;;;17.40;99.90;;;;;;3612713;39;20236;-78
2021/08/08 05:55:06;;;;;;;3.92;2.20;;;17.30;99.90;;;;;;3604080;39;20268;-77
2021/08/08 05:57:33;;;;;;;2.50;1.90;;;17.40;99.90;;;;;;3604015;39;20290;-78
2021/08/08 06:00:00;;;;;;;3.83;1.85;;;17.30;99.90;;;;;;3604037;39;20230;-77
2021/08/08 06:02:29;;;;;;;2.08;1.63;;;17.30;99.90;;;;;;3604028;39;20233;-77
2021/08/08 06:04:56;;;;;;;3.47;1.98;;;17.40;99.90;;;;;;3595593;39;20292;-78
2021/08/08 06:07:24;;;;;;;8.52;2.20;;;17.40;99.90;;;;;;3603753;39;20240;-78
2021/08/08 06:09:51;;;;;;;4.63;2.10;;;17.40;99.90;;;;;;3595549;39;20249;-78
2021/08/08 06:12:19;;;;;;;1.73;1.63;;;17.50;99.90;;;;;;3609937;39;20249;-77
2021/08/08 06:14:46;;;;;;;6.13;1.95;;;17.40;99.90;;;;;;3612113;39;20234;-76
2021/08/08 06:17:13;;;;;;;2.05;1.85;;;17.40;99.90;;;;;;3601310;39;21025;-77
2021/08/08 06:19:40;;;;;;;3.13;2.22;;;17.40;99.90;;;;;;3603584;39;20511;-82
2021/08/08 06:22:08;;;;;;;5.43;2.22;;;17.50;99.90;;;;;;3612463;39;20222;-78
2021/08/08 06:24:36;;;;;;;4.78;2.70;;;17.50;99.90;;;;;;3603800;39;20277;-76
2021/08/08 06:27:04;;;;;;;3.08;2.40;;;17.50;99.90;;;;;;3612503;39;20229;-78
2021/08/08 06:29:31;;;;;;;5.32;2.10;;;17.60;99.90;;;;;;3603672;39;20265;-76
2021/08/08 06:31:58;;;;;;;2.35;1.65;;;17.60;99.90;;;;;;3603700;39;20236;-76
2021/08/08 06:34:25;;;;;;;2.83;2.00;;;17.50;99.90;;;;;;3603668;39;20258;-78
2021/08/08 06:36:52;;;;;;;2.80;2.10;;;17.60;99.90;;;;;;3609874;39;20291;-77
2021/08/08 06:39:19;;;;;;;4.72;2.22;;;17.70;99.90;;;;;;3612290;39;20286;-77
2021/08/08 06:41:48;;;;;;;2.22;2.00;;;17.80;99.90;;;;;;3603779;39;20238;-77
2021/08/08 06:44:18;;;;;;;3.95;2.25;;;17.90;99.90;;;;;;3612074;39;20262;-77
2021/08/08 06:46:45;;;;;;;4.47;2.28;;;17.90;99.90;;;;;;3611996;39;20248;-79
2021/08/08 06:49:13;;;;;;;7.80;2.85;;;17.90;99.90;;;;;;3612014;39;20287;-77
2021/08/08 06:51:45;;;;;;;3.30;1.90;;;18.10;99.90;;;;;;3610932;39;20225;-78
2021/08/08 06:54:12;;;;;;;1.95;1.48;;;18.20;99.90;;;;;;3604005;40;20294;-77
2021/08/08 06:56:40;;;;;;;2.47;1.98;;;18.10;99.90;;;;;;3596655;39;20213;-76
2021/08/08 06:59:08;;;;;;;3.78;2.38;;;18.10;99.90;;;;;;3604812;40;20257;-78
2021/08/08 07:01:36;;;;;;;2.10;1.80;;;18.10;99.90;;;;;;3605266;40;20600;-77
2021/08/08 07:04:04;;;;;;;3.95;2.35;;;18.20;99.90;;;;;;3604755;39;20230;-78
2021/08/08 07:06:31;;;;;;;4.15;1.98;;;18.30;99.90;;;;;;3596544;39;20237;-84
2021/08/08 07:08:59;;;;;;;3.53;2.20;;;18.40;99.90;;;;;;3603847;40;20210;-77
2021/08/08 07:11:27;;;;;;;8.70;4.70;;;18.20;99.90;;;;;;3609770;39;20234;-77
2021/08/08 07:13:56;;;;;;;3.78;2.13;;;18.30;99.90;;;;;;3601885;40;20847;-77
2021/08/08 07:16:25;;;;;;;4.57;2.47;;;18.40;99.90;;;;;;3604553;40;20576;-82
2021/08/08 07:18:52;;;;;;;6.43;3.20;;;18.50;99.90;;;;;;3604685;39;20280;-78
2021/08/08 07:21:19;;;;;;;5.07;2.50;;;18.40;99.90;;;;;;3596166;40;20266;-76
2021/08/08 07:23:46;;;;;;;4.38;2.38;;;18.50;99.90;;;;;;3608469;39;20827;-77
2021/08/08 07:26:13;;;;;;;2.85;2.15;;;18.50;99.90;;;;;;3613314;39;20230;-86
2021/08/08 07:31:32;;;;;;;6.22;2.80;;;18.60;99.90;;;;;;3583736;40;20254;-74
2021/08/08 07:34:01;;;;;;;5.35;2.72;;;18.50;99.90;;;;;;3588584;40;20254;-76
2021/08/08 07:36:29;;;;;;;6.65;3.10;;;18.50;99.90;;;;;;3574700;40;20244;-76
2021/08/08 07:38:56;;;;;;;4.00;2.50;;;18.50;99.90;;;;;;3584384;40;20239;-75
2021/08/08 07:41:23;;;;;;;5.20;2.80;;;18.60;99.90;;;;;;3587062;40;20263;-78
2021/08/08 07:43:50;;;;;;;6.47;2.63;;;18.50;99.90;;;;;;3592758;40;20296;-79
2021/08/08 07:46:17;;;;;;;5.63;2.90;;;18.60;99.90;;;;;;3584094;40;20235;-78
2021/08/08 07:48:47;;;;;;;6.30;3.00;;;18.50;99.90;;;;;;3583891;40;20747;-78
2021/08/08 07:51:15;;;;;;;6.57;2.10;;;18.60;99.90;;;;;;3585685;40;20227;-76
2021/08/08 07:53:44;;;;;;;4.43;2.63;;;18.60;99.90;;;;;;3583567;40;20719;-76
2021/08/08 07:56:11;;;;;;;9.15;2.85;;;18.50;99.90;;;;;;3583718;40;20653;-77
2021/08/08 07:58:39;;;;;;;4.72;2.92;;;18.60;99.90;;;;;;3584095;40;20603;-77
2021/08/08 08:01:07;;;;;;;10.98;3.97;;;;;;;;;;3592352;40;20227;-79
2021/08/08 08:03:34;;;;;;;5.25;2.78;;;18.60;99.90;;;;;;3583808;40;20285;-76
2021/08/08 08:06:04;;;;;;;3.83;2.67;;;18.70;99.90;;;;;;3575327;40;20243;-76
2021/08/08 08:08:31;;;;;;;2.67;2.15;;;18.60;99.90;;;;;;3592165;40;20293;-78
2021/08/08 08:10:58;;;;;;;7.72;2.75;;;18.60;99.90;;;;;;3583870;40;20227;-77
2021/08/08 08:13:25;;;;;;;4.35;2.92;;;;;;;;;;3591309;40;20239;-76
2021/08/08 08:15:52;;;;;;;5.65;2.38;;;18.50;99.90;;;;;;3591424;40;20733;-76
2021/08/08 08:18:19;;;;;;;5.60;2.42;;;18.50;99.90;;;;;;3583403;40;20215;-77
2021/08/08 08:20:46;;;;;;;3.60;2.55;;;18.30;99.90;;;;;;3583341;40;20250;-76
2021/08/08 08:23:15;;;;;;;3.85;2.60;;;18.40;99.90;;;;;;3583317;40;20539;-78
2021/08/08 08:25:43;;;;;;;13.30;3.08;;;18.40;99.90;;;;;;3583156;40;20242;-77
2021/08/08 08:28:12;;;;;;;3.78;2.72;;;;;;;;;;3573958;40;20582;-81
2021/08/08 08:30:39;;;;;;;3.45;2.08;;;18.70;99.90;;;;;;3591966;40;20345;-77
2021/08/08 08:33:06;;;;;;;7.15;2.78;;;19.00;99.90;;;;;;3575932;40;20374;-78
2021/08/08 08:35:33;;;;;;;3.85;2.10;;;19.20;99.90;;;;;;3574204;40;20247;-80
2021/08/08 08:38:00;;;;;;;8.32;2.63;;;19.60;99.90;;;;;;3573407;40;20234;-76
2021/08/08 08:40:30;;;;;;;5.25;2.17;;;19.60;99.90;;;;;;3583936;40;20243;-76
2021/08/08 08:43:00;;;;;;;3.90;1.80;;;19.80;99.90;;;;;;3579492;40;20239;-75
2021/08/08 08:45:28;;;;;;;3.78;2.20;;;19.80;99.90;;;;;;3578314;40;20521;-75
2021/08/08 08:47:57;;;;;;;4.57;2.40;;;19.80;99.90;;;;;;3572788;40;20256;-76
2021/08/08 08:50:25;;;;;;;4.50;2.38;;;19.70;99.90;;;;;;3569558;40;20251;-77
2021/08/08 08:52:54;;;;;;;4.88;2.30;;;19.40;99.90;;;;;;3586175;40;20655;-77
2021/08/08 08:55:23;;;;;;;3.60;2.25;;;19.30;99.90;;;;;;3572586;40;20258;-76
2021/08/08 08:57:52;;;;;;;4.03;2.25;;;19.30;99.90;;;;;;3577476;40;20257;-76
2021/08/08 09:00:22;;;;;;;4.38;2.10;;;19.30;99.90;;;;;;3575408;40;20251;-76
2021/08/08 09:02:49;;;;;;;4.40;2.35;;;;;;;;;;3569161;40;20246;-76
2021/08/08 09:05:16;;;;;;;8.50;3.42;;;19.40;99.90;;;;;;3575368;40;20211;-82
2021/08/08 09:07:44;;;;;;;3.20;2.13;;;19.70;99.90;;;;;;3577856;40;20641;-76
2021/08/08 09:10:12;;;;;;;2.83;2.58;;;19.50;99.90;;;;;;3577292;40;20238;-74
2021/08/08 09:12:40;;;;;;;3.50;2.10;;;19.20;99.90;;;;;;3586706;40;20239;-76
2021/08/08 09:15:11;;;;;;;5.55;2.38;;;19.20;99.90;;;;;;3577060;40;20243;-75
2021/08/08 09:17:49;;;;;;;3.28;2.33;;;19.20;99.90;;;;;;3586885;40;20600;-75
2021/08/08 09:20:16;;;;;;;2.67;2.03;;;;;;;;;;3575221;40;20240;-75
2021/08/08 09:22:57;;;;;;;4.35;2.28;;;19.20;99.90;;;;;;3563353;40;20243;-77
2021/08/08 09:25:25;;;;;;;2.28;1.67;;;19.20;99.90;;;;;;3580847;40;20227;-76
2021/08/08 09:27:53;;;;;;;4.10;2.30;;;19.10;99.90;;;;;;3584754;40;20245;-75
2021/08/08 09:30:22;;;;;;;7.05;2.72;;;;;;;;;;3585351;40;20313;-77
2021/08/08 09:33:01;;;;;;;5.55;2.03;;;19.00;99.90;;;;;;3576120;40;20231;-76
2021/08/08 09:35:32;;;;;;;5.10;2.35;;;;;;;;;;3577242;40;20251;-76
2021/08/08 09:38:03;;;;;;;5.43;2.22;;;19.00;99.90;;;;;;3579944;40;20222;-75
2021/08/08 09:40:31;;;;;;;3.35;2.40;;;18.90;99.90;;;;;;3581999;40;20249;-76
2021/08/08 09:42:59;;;;;;;2.08;1.45;;;;;;;;;;3584521;40;20285;-75
2021/08/08 09:45:39;;;;;;;6.50;2.20;;;18.90;99.90;;;;;;3600340;40;20270;-80
2021/08/08 09:48:11;;;;;;;3.58;1.90;;;18.90;99.90;;;;;;3583875;40;20250;-76
2021/08/08 09:50:39;;;;;;;7.30;2.38;;;19.00;99.90;;;;;;3577778;40;20263;-76
2021/08/08 09:53:07;;;;;;;3.17;1.95;;;19.10;99.90;;;;;;3585367;40;20603;-76
2021/08/08 09:55:37;;;;;;;7.57;2.78;;;19.00;99.90;;;;;;3586442;40;20239;-76
2021/08/08 09:58:06;;;;;;;3.90;2.13;;;19.10;99.90;;;;;;3585656;40;20251;-74
2021/08/08 10:00:36;;;;;;;5.47;1.98;;;19.30;99.90;;;;;;3583575;40;20305;-75
2021/08/08 10:03:06;;;;;;;6.47;2.75;;;19.40;99.90;;;;;;3577082;40;20552;-75
2021/08/08 10:05:36;;;;;;;3.60;1.70;;;19.40;99.90;;;;;;3570691;40;20235;-75
2021/08/08 10:08:08;;;;;;;4.63;2.13;;;19.40;99.90;;;;;;3570370;40;20282;-77
2021/08/08 10:10:36;;;;;;;5.90;2.28;;;19.50;99.90;;;;;;3570579;40;20261;-76
2021/08/08 10:13:22;;;;;;;9.10;2.70;;;19.40;99.90;;;;;;3581162;40;20297;-76
2021/08/08 10:15:53;;;;;;;4.18;1.83;;;19.50;99.90;;;;;;3571548;40;20238;-77
2021/08/08 10:18:26;;;;;;;7.45;2.55;;;19.40;99.90;;;;;;3589660;40;20246;-78
2021/08/08 10:20:54;;;;;;;4.25;2.35;;;19.50;99.90;;;;;;3585373;40;20247;-77
2021/08/08 10:23:49;;;;;;;2.97;1.90;;;19.50;99.90;;;;;;3589446;40;20261;-83
2021/08/08 10:26:24;;;;;;;3.00;2.00;;;19.60;99.90;;;;;;3576706;40;20255;-78
2021/08/08 10:29:00;;;;;;;5.55;1.70;;;;;;;;;;3576702;40;20300;-77
2021/08/08 10:31:30;;;;;;;5.15;2.45;;;19.60;99.90;;;;;;3586118;40;20277;-77
2021/08/08 10:34:01;;;;;;;3.67;2.05;;;19.60;99.90;;;;;;3586660;40;20654;-77
2021/08/08 10:36:29;;;;;;;4.55;2.40;;;19.70;99.90;;;;;;3586997;40;20258;-78
2021/08/08 10:39:09;;;;;;;3.47;2.55;;;19.80;99.90;;;;;;3581343;40;20243;-78
2021/08/08 10:41:36;;;;;;;5.15;2.13;;;20.00;99.90;;;;;;3590324;40;20239;-80
2021/08/08 10:44:07;;;;;;;3.38;2.05;;;20.30;99.90;;;;;;3587608;40;20241;-78
2021/08/08 10:46:46;;;;;;;5.55;2.40;;;20.30;99.90;;;;;;3588171;40;20304;-77
2021/08/08 10:49:15;;;;;;;4.45;2.25;;;20.20;99.90;;;;;;3585614;40;20245;-77
2021/08/08 10:51:42;;;;;;;3.60;2.40;;;20.10;99.90;;;;;;3578406;40;20267;-79
2021/08/08 10:54:09;;;;;;;5.93;2.38;;;20.10;99.90;;;;;;3584408;40;20258;-79
2021/08/08 10:56:41;;;;;;;5.82;2.33;;;20.00;99.90;;;;;;3579679;40;20280;-79
2021/08/08 10:59:16;;;;;;;2.25;1.80;;;19.90;99.90;;;;;;3576265;40;20223;-79
2021/08/08 11:01:43;;;;;;;7.80;2.83;;;19.80;99.90;;;;;;3584523;40;20269;-79
2021/08/08 11:04:10;;;;;;;4.70;2.40;;;19.70;99.90;;;;;;3585747;40;20257;-79
2021/08/08 11:06:42;;;;;;;3.30;2.25;;;19.80;99.90;;;;;;3584305;40;20255;-78
2021/08/08 11:09:09;;;;;;;5.28;2.17;;;19.60;99.90;;;;;;3586279;40;20282;-78
2021/08/08 11:11:37;;;;;;;5.68;2.33;;;19.60;99.90;;;;;;3587863;40;20590;-78
2021/08/08 11:14:10;;;;;;;4.05;2.00;;;19.60;99.90;;;;;;3589439;40;20258;-78
2021/08/08 11:16:38;;;;;;;7.93;2.42;;;19.60;99.90;;;;;;3590140;40;20254;-82
2021/08/08 11:19:05;;;;;;;4.45;2.20;;;19.50;99.90;;;;;;3589634;40;20223;-79
2021/08/08 11:21:33;;;;;;;3.25;2.05;;;19.40;99.90;;;;;;3581049;40;20627;-79
2021/08/08 11:24:03;;;;;;;3.65;1.88;;;19.50;99.90;;;;;;3589712;40;20231;-80
2021/08/08 11:26:31;;;;;;;5.05;2.15;;;19.40;99.90;;;;;;3582375;39;20429;-78
2021/08/08 11:29:00;;;;;;;5.63;2.38;;;19.60;99.90;;;;;;3590689;40;20243;-77
2021/08/08 11:31:28;;;;;;;2.08;1.80;;;19.70;99.90;;;;;;3591630;40;20212;-78
2021/08/08 11:34:00;;;;;;;3.53;1.92;;;19.70;99.90;;;;;;3583170;40;20272;-77
2021/08/08 11:36:32;;;;;;;2.22;1.70;;;19.80;99.90;;;;;;3592335;39;20288;-78
2021/08/08 11:39:04;;;;;;;3.97;2.05;;;20.10;99.90;;;;;;3592608;40;20239;-77
2021/08/08 11:41:31;;;;;;;5.45;2.25;;;20.30;99.90;;;;;;3593183;39;20235;-77
2021/08/08 11:44:10;;;;;;;4.35;2.15;;;20.40;99.90;;;;;;3584238;40;20247;-76
2021/08/08 11:46:41;;;;;;;2.83;2.53;;;20.10;99.90;;;;;;3593092;40;20230;-76
2021/08/08 11:49:18;;;;;;;3.75;1.95;;;20.20;99.90;;;;;;3595431;39;20323;-76
2021/08/08 11:51:56;;;;;;;2.35;1.90;;;20.30;99.90;;;;;;3593445;39;20300;-74
2021/08/08 11:54:27;;;;;;;3.67;2.10;;;20.20;99.90;;;;;;3590181;40;20282;-75
2021/08/08 11:56:54;;;;;;;2.80;2.00;;;20.50;99.90;;;;;;3590516;40;20267;-75
2021/08/08 11:59:26;;;;;;;3.28;1.70;;;;;;;;;;3587981;40;20231;-76
2021/08/08 12:02:00;;;;;;;6.22;2.03;;;21.30;99.90;;;;;;3590867;40;20246;-76
2021/08/08 12:04:29;;;;;;;3.20;1.75;;;21.60;99.90;;;;;;3589657;40;20317;-75
2021/08/08 12:06:56;;;;;;;3.80;2.53;;;21.60;99.90;;;;;;3590168;40;20246;-77
2021/08/08 12:09:25;;;;;;;6.53;3.20;;;21.80;99.90;;;;;;3591225;40;20227;-77
2021/08/08 12:11:55;;;;;;;3.17;1.75;;;21.80;99.90;;;;;;3588850;40;20243;-76
2021/08/08 12:14:33;;;;;;;4.57;2.20;;;21.60;99.90;;;;;;3589030;40;20239;-76
2021/08/08 12:17:03;;;;;;;2.75;1.50;;;21.50;99.90;;;;;;3589163;40;20234;-77
2021/08/08 12:19:31;;;;;;;5.03;1.98;;;21.70;99.90;;;;;;3590591;40;20247;-77
2021/08/08 12:22:03;;;;;;;2.58;1.92;;;21.70;99.90;;;;;;3584324;39;20255;-81
2021/08/08 12:24:38;;;;;;;5.28;1.75;;;21.50;99.90;;;;;;3577956;40;20255;-80
2021/08/08 12:27:05;;;;;;;3.63;1.95;;;21.30;99.90;;;;;;3591604;39;20234;-78
2021/08/08 12:29:36;;;;;;;3.40;1.75;;;21.30;99.90;;;;;;3592300;39;20286;-80
2021/08/08 12:32:09;;;;;;;2.85;1.75;;;21.50;99.90;;;;;;3592370;39;20230;-84
2021/08/08 12:34:36;;;;;;;4.05;2.33;;;21.80;99.90;;;;;;3587990;40;20583;-77
2021/08/08 12:37:06;;;;;;;2.95;1.67;;;21.80;99.90;;;;;;3586160;40;20242;-76
2021/08/08 12:39:35;;;;;;;3.47;1.52;;;21.90;99.90;;;;;;3586814;40;20392;-76
2021/08/08 12:42:03;;;;;;;4.10;2.03;;;;;;;;;;3587669;40;20685;-78
2021/08/08 12:44:35;;;;;;;6.55;2.30;;;22.70;99.90;;;;;;3579995;40;20872;-77
2021/08/08 12:47:04;;;;;;;3.92;2.05;;;22.90;99.90;;;;;;3585291;40;20247;-76
2021/08/08 12:49:38;;;;;;;7.07;1.35;;;;;;;;;;3587071;40;20234;-77
2021/08/08 12:52:06;;;;;;;3.88;1.65;;;;;;;;;;3588642;40;20621;-77
2021/08/08 12:54:35;;;;;;;5.88;2.30;;;22.90;99.90;;;;;;3588454;40;20215;-76
2021/08/08 12:57:02;;;;;;;2.28;1.58;;;22.80;99.90;;;;;;3588977;40;20631;-75
2021/08/08 12:59:31;;;;;;;7.00;1.92;;;22.50;99.90;;;;;;3587821;40;20258;-77
2021/08/08 13:01:58;;;;;;;4.28;2.00;;;22.40;99.90;;;;;;3579879;40;20278;-75
2021/08/08 13:04:25;;;;;;;5.65;1.85;;;22.90;99.90;;;;;;3586482;40;20247;-77